createdAt,value
2019-01-18T00:00:11.367Z,67.40
2019-01-18T00:02:39.790Z,67.30
2019-01-18T00:05:08.457Z,67.40
2019-01-18T00:07:36.886Z,66.70
2019-01-18T00:10:08.385Z,66.90
2019-01-18T00:12:36.799Z,66.60
2019-01-18T00:15:08.318Z,66.90
2019-01-18T00:17:36.743Z,66.90
2019-01-18T00:20:11.414Z,66.50
2019-01-18T00:22:39.905Z,66.80
2019-01-18T00:25:09.119Z,66.30
2019-01-18T00:27:37.561Z,66.60
2019-01-18T00:30:11.673Z,66.80
2019-01-18T00:32:40.167Z,66.60
2019-01-18T00:35:08.729Z,66.60
2019-01-18T00:37:37.200Z,66.60
2019-01-18T00:40:08.730Z,66.60
2019-01-18T00:42:37.490Z,66.60
2019-01-18T00:45:09.158Z,66.40
2019-01-18T00:47:37.739Z,66.40
2019-01-18T00:50:09.267Z,66.70
2019-01-18T00:52:37.677Z,67.00
2019-01-18T00:55:06.925Z,66.70
2019-01-18T00:57:35.357Z,66.90
2019-01-18T01:00:08.115Z,67.10
2019-01-18T01:02:36.570Z,67.00
2019-01-18T01:05:06.342Z,67.00
2019-01-18T01:07:34.773Z,67.10
2019-01-18T01:10:04.135Z,67.00
2019-01-18T01:12:32.640Z,67.20
2019-01-18T01:15:01.132Z,67.00
2019-01-18T01:17:29.632Z,66.90
2019-01-18T01:19:58.216Z,66.80
2019-01-18T01:22:26.669Z,66.90
2019-01-18T01:24:55.086Z,66.70
2019-01-18T01:27:23.521Z,66.80
2019-01-18T01:29:51.964Z,66.80
2019-01-18T01:32:20.403Z,66.80
2019-01-18T01:34:48.854Z,66.70
2019-01-18T01:37:17.295Z,66.50
2019-01-18T01:39:45.711Z,66.90
2019-01-18T01:42:14.317Z,67.30
2019-01-18T01:44:42.820Z,66.50
2019-01-18T01:47:11.236Z,66.60
2019-01-18T01:49:39.663Z,66.50
2019-01-18T01:52:08.074Z,66.00
2019-01-18T01:54:36.779Z,65.90
2019-01-18T01:57:05.257Z,65.80
2019-01-18T01:59:33.682Z,66.20
2019-01-18T02:02:02.097Z,66.10
2019-01-18T02:04:30.633Z,66.00
2019-01-18T02:06:59.039Z,66.20
2019-01-18T02:09:27.473Z,65.90
2019-01-18T02:11:55.897Z,65.10
2019-01-18T02:14:24.349Z,65.20
2019-01-18T02:16:52.761Z,65.40
2019-01-18T02:19:21.194Z,65.60
2019-01-18T02:21:49.597Z,65.30
2019-01-18T02:24:18.112Z,65.60
2019-01-18T02:26:46.632Z,65.50
2019-01-18T02:29:15.050Z,65.80
2019-01-18T02:31:43.486Z,65.40
2019-01-18T02:34:11.893Z,65.20
2019-01-18T02:36:40.860Z,65.70
2019-01-18T02:39:09.434Z,65.90
2019-01-18T02:41:37.953Z,65.90
2019-01-18T02:44:06.374Z,65.90
2019-01-18T02:46:34.816Z,66.00
2019-01-18T02:49:03.245Z,66.10
2019-01-18T02:51:31.680Z,66.00
2019-01-18T02:54:00.088Z,66.20
2019-01-18T02:56:28.545Z,66.10
2019-01-18T02:58:57.050Z,65.70
2019-01-18T03:01:25.488Z,65.10
2019-01-18T03:03:53.892Z,65.00
2019-01-18T03:06:22.300Z,64.00
2019-01-18T03:08:50.745Z,64.00
2019-01-18T03:11:19.189Z,63.50
2019-01-18T03:13:47.626Z,64.10
2019-01-18T03:16:16.049Z,64.30
2019-01-18T03:18:44.484Z,64.20
2019-01-18T03:21:12.897Z,64.40
2019-01-18T03:23:41.334Z,64.70
2019-01-18T03:26:09.743Z,65.30
2019-01-18T03:28:38.177Z,65.50
2019-01-18T03:31:06.638Z,65.90
2019-01-18T03:33:35.137Z,66.40
2019-01-18T03:36:03.616Z,66.60
2019-01-18T03:38:32.040Z,66.80
2019-01-18T03:41:00.452Z,68.10
2019-01-18T03:43:28.909Z,67.30
2019-01-18T03:45:57.316Z,67.40
2019-01-18T03:48:25.767Z,67.60
2019-01-18T03:50:54.178Z,68.00
2019-01-18T03:53:22.604Z,67.90
2019-01-18T03:55:51.084Z,67.80
2019-01-18T03:58:19.607Z,68.10
2019-01-18T04:00:48.063Z,68.10
2019-01-18T04:03:16.528Z,67.80
2019-01-18T04:05:44.952Z,67.90
2019-01-18T04:08:13.365Z,67.60
2019-01-18T04:10:41.881Z,67.70
2019-01-18T04:13:10.451Z,67.90
2019-01-18T04:15:38.935Z,67.60
2019-01-18T04:18:07.527Z,67.40
2019-01-18T04:20:35.973Z,67.90
2019-01-18T04:23:04.537Z,67.70
2019-01-18T04:25:33.136Z,67.70
2019-01-18T04:28:01.566Z,67.40
2019-01-18T04:30:33.590Z,67.40
2019-01-18T04:33:00.878Z,67.40
2019-01-18T04:35:29.341Z,67.10
2019-01-18T04:37:57.838Z,67.40
2019-01-18T04:40:28.275Z,67.30
2019-01-18T04:42:57.027Z,67.20
2019-01-18T04:45:25.531Z,67.40
2019-01-18T04:47:53.974Z,67.40
2019-01-18T04:50:27.602Z,67.40
2019-01-18T04:52:56.009Z,67.30
2019-01-18T04:55:24.516Z,67.50
2019-01-18T04:57:52.998Z,67.50
2019-01-18T05:00:26.398Z,67.50
2019-01-18T05:02:54.885Z,67.30
2019-01-18T05:05:23.305Z,67.30
2019-01-18T05:07:51.974Z,67.10
2019-01-18T05:10:22.622Z,66.80
2019-01-18T05:12:51.080Z,66.40
2019-01-18T05:15:22.175Z,66.70
2019-01-18T05:17:50.977Z,66.60
2019-01-18T05:20:19.636Z,66.70
2019-01-18T05:22:48.077Z,66.70
2019-01-18T05:25:17.121Z,66.70
2019-01-18T05:27:45.563Z,66.80
2019-01-18T05:30:17.076Z,67.10
2019-01-18T05:32:45.590Z,66.90
2019-01-18T05:35:14.246Z,67.60
2019-01-18T05:37:44.228Z,67.80
2019-01-18T05:40:14.785Z,67.60
2019-01-18T05:42:43.209Z,67.60
2019-01-18T05:45:14.262Z,67.50
2019-01-18T05:47:42.780Z,67.60
2019-01-18T05:50:13.931Z,67.60
2019-01-18T05:52:42.681Z,68.10
2019-01-18T05:55:11.336Z,68.80
2019-01-18T05:57:39.893Z,68.00
2019-01-18T06:00:18.668Z,68.80
2019-01-18T06:02:47.089Z,69.00
2019-01-18T06:05:18.135Z,69.30
2019-01-18T06:07:46.573Z,69.10
2019-01-18T06:10:15.073Z,69.10
2019-01-18T06:12:43.579Z,69.00
2019-01-18T06:15:12.019Z,69.10
2019-01-18T06:17:40.660Z,69.00
2019-01-18T06:20:12.187Z,70.00
2019-01-18T06:22:40.666Z,69.20
2019-01-18T06:25:09.247Z,69.00
2019-01-18T06:27:37.725Z,69.20
2019-01-18T06:30:17.599Z,69.40
2019-01-18T06:32:46.155Z,69.20
2019-01-18T06:35:15.421Z,69.30
2019-01-18T06:37:44.022Z,69.20
2019-01-18T06:40:20.866Z,69.70
2019-01-18T06:42:49.731Z,71.00
2019-01-18T06:45:20.627Z,73.70
2019-01-18T06:47:49.039Z,74.80
2019-01-18T06:50:18.934Z,76.30
2019-01-18T06:52:47.434Z,77.60
2019-01-18T06:55:16.020Z,78.20
2019-01-18T06:57:44.500Z,78.70
2019-01-18T07:00:18.974Z,78.60
2019-01-18T07:02:47.449Z,78.80
2019-01-18T07:05:15.948Z,78.70
2019-01-18T07:07:44.612Z,79.20
2019-01-18T07:10:20.671Z,79.20
2019-01-18T07:12:46.347Z,79.30
2019-01-18T07:15:14.934Z,79.40
2019-01-18T07:17:43.445Z,79.70
2019-01-18T07:20:17.133Z,79.30
2019-01-18T07:22:45.784Z,78.50
2019-01-18T07:25:17.144Z,78.70
2019-01-18T07:27:45.571Z,78.70
2019-01-18T07:30:17.113Z,79.10
2019-01-18T07:32:45.545Z,79.40
2019-01-18T07:35:13.985Z,79.50
2019-01-18T07:37:42.416Z,79.60
2019-01-18T07:40:11.787Z,79.50
2019-01-18T07:42:40.376Z,79.40
2019-01-18T07:45:14.548Z,78.90
2019-01-18T07:47:43.054Z,78.90
2019-01-18T07:50:19.644Z,78.20
2019-01-18T07:52:43.304Z,78.40
2019-01-18T07:55:11.903Z,77.60
2019-01-18T07:57:40.299Z,77.10
2019-01-18T08:00:14.484Z,76.90
2019-01-18T08:02:43.389Z,77.40
2019-01-18T08:05:12.150Z,77.50
2019-01-18T08:07:40.912Z,77.70
2019-01-18T08:10:12.594Z,78.40
2019-01-18T08:12:41.025Z,78.00
2019-01-18T08:15:17.530Z,78.00
2019-01-18T08:17:46.041Z,77.80
2019-01-18T08:20:16.957Z,77.70
2019-01-18T08:22:45.592Z,77.70
2019-01-18T08:25:15.668Z,78.40
2019-01-18T08:27:44.255Z,77.50
2019-01-18T08:30:18.864Z,78.50
2019-01-18T08:32:47.409Z,78.40
2019-01-18T08:35:17.470Z,78.80
2019-01-18T08:37:45.884Z,77.80
2019-01-18T08:40:17.096Z,77.90
2019-01-18T08:42:45.834Z,78.40
2019-01-18T08:45:26.226Z,78.90
2019-01-18T08:47:54.713Z,79.40
2019-01-18T08:50:23.319Z,79.40
2019-01-18T08:52:51.737Z,79.60
2019-01-18T08:55:20.436Z,79.70
2019-01-18T08:57:48.840Z,79.40
2019-01-18T09:00:28.873Z,79.00
2019-01-18T09:02:57.332Z,79.10
2019-01-18T09:05:27.008Z,78.20
2019-01-18T09:07:55.491Z,78.00
2019-01-18T09:10:29.384Z,77.80
2019-01-18T09:12:57.852Z,78.30
2019-01-18T09:15:26.399Z,78.90
2019-01-18T09:17:54.892Z,79.20
2019-01-18T09:20:28.476Z,79.10
2019-01-18T09:22:56.893Z,77.90
2019-01-18T09:25:25.458Z,77.30
2019-01-18T09:27:53.933Z,76.60
2019-01-18T09:30:28.352Z,76.90
2019-01-18T09:32:56.836Z,76.40
2019-01-18T09:35:26.200Z,76.30
2019-01-18T09:37:56.368Z,76.10
2019-01-18T09:40:27.249Z,76.00
2019-01-18T09:42:55.759Z,76.40
2019-01-18T09:45:24.342Z,77.60
2019-01-18T09:47:52.841Z,76.70
2019-01-18T09:50:23.714Z,76.40
2019-01-18T09:52:52.788Z,76.30
2019-01-18T09:55:21.349Z,76.20
2019-01-18T09:57:49.868Z,75.70
2019-01-18T10:00:21.401Z,75.00
2019-01-18T10:02:50.089Z,75.10
2019-01-18T10:05:19.155Z,75.70
2019-01-18T10:07:47.585Z,75.60
2019-01-18T10:10:18.026Z,75.50
2019-01-18T10:12:47.005Z,75.10
2019-01-18T10:15:21.450Z,75.00
2019-01-18T10:17:49.960Z,75.10
2019-01-18T10:20:19.522Z,74.80
2019-01-18T10:22:49.725Z,74.40
2019-01-18T10:25:19.392Z,74.40
2019-01-18T10:27:47.886Z,74.40
2019-01-18T10:30:24.803Z,74.30
2019-01-18T10:32:53.353Z,73.80
2019-01-18T10:35:22.699Z,73.80
2019-01-18T10:37:51.240Z,73.70
2019-01-18T10:40:19.755Z,73.70
2019-01-18T10:42:49.460Z,73.90
2019-01-18T10:45:19.237Z,74.10
2019-01-18T10:47:48.945Z,74.30
2019-01-18T10:50:19.497Z,73.90
2019-01-18T10:52:48.174Z,73.40
2019-01-18T10:55:16.852Z,73.20
2019-01-18T10:57:45.401Z,73.40
2019-01-18T11:00:22.135Z,73.10
2019-01-18T11:02:51.621Z,73.40
2019-01-18T11:05:20.924Z,73.50
2019-01-18T11:07:49.616Z,73.10
2019-01-18T11:10:18.282Z,72.40
2019-01-18T11:12:46.891Z,72.30
2019-01-18T11:15:18.132Z,72.80
2019-01-18T11:17:46.636Z,72.70
2019-01-18T11:20:23.588Z,72.30
2019-01-18T11:22:53.048Z,72.80
2019-01-18T11:25:21.556Z,71.50
2019-01-18T11:27:49.982Z,71.60
2019-01-18T11:30:18.792Z,70.60
2019-01-18T11:32:47.376Z,69.80
2019-01-18T11:35:15.936Z,68.90
2019-01-18T11:37:44.451Z,69.90
2019-01-18T11:40:21.392Z,68.80
2019-01-18T11:42:50.028Z,69.30
2019-01-18T11:45:18.891Z,69.40
2019-01-18T11:47:47.558Z,70.00
2019-01-18T11:50:18.532Z,69.70
2019-01-18T11:52:47.036Z,69.50
2019-01-18T11:55:15.459Z,68.80
2019-01-18T11:57:44.138Z,68.70
2019-01-18T12:00:15.383Z,68.50
2019-01-18T12:02:44.356Z,69.40
2019-01-18T12:05:13.129Z,68.20
2019-01-18T12:07:41.899Z,68.20
2019-01-18T12:10:16.389Z,68.80
2019-01-18T12:12:45.049Z,69.10
2019-01-18T12:15:13.926Z,68.90
2019-01-18T12:17:42.418Z,68.70
2019-01-18T12:20:25.241Z,68.70
2019-01-18T12:22:53.774Z,68.10
2019-01-18T12:25:22.352Z,67.10
2019-01-18T12:27:50.763Z,67.70
2019-01-18T12:30:22.434Z,66.60
2019-01-18T12:32:51.764Z,64.70
2019-01-18T12:35:20.246Z,63.00
2019-01-18T12:37:48.700Z,60.90
2019-01-18T12:40:17.204Z,59.80
2019-01-18T12:42:45.650Z,58.80
2019-01-18T12:45:16.498Z,57.70
2019-01-18T12:47:45.009Z,57.30
2019-01-18T12:50:22.577Z,55.90
2019-01-18T12:52:51.089Z,56.90
2019-01-18T12:55:19.511Z,58.00
2019-01-18T12:57:47.953Z,58.80
2019-01-18T13:00:19.131Z,58.30
2019-01-18T13:02:47.696Z,57.30
2019-01-18T13:05:19.466Z,56.80
2019-01-18T13:07:48.442Z,56.10
2019-01-18T13:10:17.113Z,55.60
2019-01-18T13:12:45.624Z,55.30
2019-01-18T13:15:25.752Z,54.70
2019-01-18T13:17:54.191Z,54.00
2019-01-18T13:20:22.758Z,52.90
2019-01-18T13:22:51.210Z,52.20
2019-01-18T13:25:19.644Z,51.80
2019-01-18T13:27:48.128Z,51.20
2019-01-18T13:30:18.208Z,51.00
2019-01-18T13:32:46.740Z,52.30
2019-01-18T13:35:15.313Z,52.20
2019-01-18T13:37:43.752Z,53.90
2019-01-18T13:40:14.727Z,54.60
2019-01-18T13:42:43.277Z,55.60
2019-01-18T13:45:13.058Z,56.10
2019-01-18T13:47:42.821Z,57.40
2019-01-18T13:50:13.916Z,57.30
2019-01-18T13:52:42.514Z,57.20
2019-01-18T13:55:27.896Z,57.50
2019-01-18T13:57:56.297Z,58.00
2019-01-18T14:00:26.362Z,58.20
2019-01-18T14:02:55.150Z,57.40
2019-01-18T14:05:23.602Z,56.70
2019-01-18T14:07:53.535Z,57.20
2019-01-18T14:10:24.962Z,57.60
2019-01-18T14:12:53.460Z,58.20
2019-01-18T14:15:24.034Z,58.90
2019-01-18T14:17:52.684Z,59.20
2019-01-18T14:20:23.753Z,58.80
2019-01-18T14:22:52.592Z,59.60
2019-01-18T14:25:21.532Z,60.20
2019-01-18T14:27:50.205Z,60.60
2019-01-18T14:30:26.566Z,60.70
2019-01-18T14:32:55.957Z,60.70
2019-01-18T14:35:25.314Z,61.10
2019-01-18T14:37:53.848Z,60.80
2019-01-18T14:40:22.430Z,61.10
2019-01-18T14:42:52.993Z,60.90
2019-01-18T14:45:39.867Z,60.50
2019-01-18T14:48:08.308Z,59.90
2019-01-18T14:50:36.872Z,60.20
2019-01-18T14:53:05.688Z,60.40
2019-01-18T14:55:34.871Z,60.70
2019-01-18T14:58:05.039Z,60.90
2019-01-18T15:00:35.334Z,61.10
2019-01-18T15:03:04.649Z,62.00
2019-01-18T15:05:33.297Z,62.80
2019-01-18T15:08:01.918Z,63.00
2019-01-18T15:10:30.480Z,63.40
2019-01-18T15:13:05.117Z,63.30
2019-01-18T15:15:33.666Z,64.10
2019-01-18T15:18:02.201Z,64.00
2019-01-18T15:20:32.274Z,63.80
2019-01-18T15:23:01.095Z,63.90
2019-01-18T15:25:29.682Z,63.90
2019-01-18T15:27:58.152Z,64.10
2019-01-18T15:30:29.011Z,64.50
2019-01-18T15:32:57.536Z,64.80
2019-01-18T15:35:34.221Z,65.10
2019-01-18T15:38:03.066Z,65.60
2019-01-18T15:40:34.503Z,65.60
2019-01-18T15:43:03.361Z,66.30
2019-01-18T15:45:31.969Z,66.80
2019-01-18T15:48:00.475Z,67.50
2019-01-18T15:50:33.970Z,67.60
2019-01-18T15:53:02.660Z,68.00
2019-01-18T15:55:31.688Z,67.90
2019-01-18T15:58:00.194Z,68.20
2019-01-18T16:00:34.468Z,68.20
2019-01-18T16:03:03.109Z,68.20
2019-01-18T16:05:31.647Z,68.40
2019-01-18T16:08:01.425Z,68.40
2019-01-18T16:10:30.035Z,68.70
2019-01-18T16:12:58.837Z,69.00
2019-01-18T16:15:36.047Z,69.20
2019-01-18T16:18:07.679Z,69.20
2019-01-18T16:20:36.122Z,69.20
2019-01-18T16:23:04.937Z,69.40
2019-01-18T16:25:33.464Z,69.70
2019-01-18T16:28:02.040Z,69.90
2019-01-18T16:30:30.499Z,70.00
2019-01-18T16:32:58.920Z,70.10
2019-01-18T16:35:27.598Z,70.40
2019-01-18T16:37:55.500Z,70.60
2019-01-18T16:40:27.536Z,70.50
2019-01-18T16:43:14.335Z,70.80
2019-01-18T16:45:44.397Z,71.00
2019-01-18T16:48:12.827Z,71.20
2019-01-18T16:50:41.423Z,71.50
2019-01-18T16:53:09.981Z,72.10
2019-01-18T16:55:38.454Z,71.60
2019-01-18T16:58:07.045Z,71.60
2019-01-18T17:00:41.719Z,71.40
2019-01-18T17:03:10.229Z,71.20
2019-01-18T17:05:38.780Z,71.30
2019-01-18T17:08:07.734Z,71.50
2019-01-18T17:10:36.364Z,71.80
2019-01-18T17:13:05.447Z,72.10
2019-01-18T17:15:34.022Z,72.10
2019-01-18T17:18:02.559Z,72.20
2019-01-18T17:20:45.656Z,72.40
2019-01-18T17:23:14.205Z,72.60
2019-01-18T17:25:42.793Z,72.70
2019-01-18T17:28:11.257Z,72.80
2019-01-18T17:30:39.705Z,73.00
2019-01-18T17:33:08.259Z,73.20
2019-01-18T17:35:48.474Z,73.10
2019-01-18T17:38:37.508Z,73.20
2019-01-18T17:41:20.788Z,73.30
2019-01-18T17:44:11.470Z,73.50
2019-01-18T17:46:49.051Z,73.70
2019-01-18T17:49:29.693Z,73.80
2019-01-18T17:52:19.504Z,73.70
2019-01-18T17:55:19.863Z,74.00
2019-01-18T17:57:51.368Z,74.30
2019-01-18T18:00:38.308Z,74.20
2019-01-18T18:03:36.350Z,74.20
2019-01-18T18:06:12.903Z,74.30
2019-01-18T18:08:53.405Z,74.30
2019-01-18T18:11:42.649Z,74.30
2019-01-18T18:14:15.863Z,74.70
2019-01-18T18:17:04.215Z,74.40
2019-01-18T18:20:07.702Z,74.60
2019-01-18T18:22:39.252Z,75.30
2019-01-18T18:25:28.943Z,74.90
2019-01-18T18:28:21.383Z,74.70
2019-01-18T18:31:13.679Z,74.80
2019-01-18T18:34:08.785Z,74.70
2019-01-18T18:36:57.829Z,74.70
2019-01-18T18:39:52.181Z,74.80
2019-01-18T18:42:29.268Z,75.10
2019-01-18T18:45:29.425Z,75.20
2019-01-18T18:48:00.943Z,75.00
2019-01-18T18:50:35.352Z,74.90
2019-01-18T18:53:22.037Z,74.90
2019-01-18T18:56:13.330Z,74.80
2019-01-18T18:59:04.309Z,74.60
2019-01-18T19:01:41.389Z,73.90
2019-01-18T19:04:40.256Z,73.80
2019-01-18T19:07:23.642Z,73.80
2019-01-18T19:10:00.745Z,73.60
2019-01-18T19:12:35.208Z,73.30
2019-01-18T19:15:26.278Z,73.60
2019-01-18T19:18:18.762Z,73.70
2019-01-18T19:21:06.601Z,73.60
2019-01-18T19:23:56.550Z,73.50
2019-01-18T19:26:28.202Z,73.60
2019-01-18T19:29:08.535Z,73.80
2019-01-18T19:31:42.741Z,73.80
2019-01-18T19:34:14.273Z,73.70
2019-01-18T19:37:19.124Z,73.90
2019-01-18T19:39:56.053Z,73.90
2019-01-18T19:42:33.200Z,74.20
2019-01-18T19:45:22.620Z,74.40
2019-01-18T19:48:05.941Z,74.60
2019-01-18T19:51:00.264Z,74.80
2019-01-18T19:53:57.497Z,74.90
2019-01-18T19:56:31.968Z,75.00
2019-01-18T19:59:18.534Z,75.10
2019-01-18T20:02:05.047Z,75.00
2019-01-18T20:04:54.517Z,76.00
2019-01-18T20:07:38.038Z,75.10
2019-01-18T20:10:25.858Z,75.30
2019-01-18T20:13:00.208Z,75.30
2019-01-18T20:15:49.599Z,75.20
2019-01-18T20:18:36.303Z,75.00
2019-01-18T20:21:19.422Z,75.10
2019-01-18T20:24:06.290Z,75.20
2019-01-18T20:26:57.033Z,75.40
2019-01-18T20:29:40.508Z,75.30
2019-01-18T20:32:28.873Z,75.40
2019-01-18T20:35:00.471Z,75.40
2019-01-18T20:37:47.026Z,75.40
2019-01-18T20:40:21.781Z,75.30
2019-01-18T20:43:14.317Z,75.60
2019-01-18T20:46:07.054Z,74.70
2019-01-18T20:48:47.413Z,74.50
2019-01-18T20:51:31.031Z,74.80
2019-01-18T20:54:05.718Z,75.20
2019-01-18T20:56:42.630Z,75.20
2019-01-18T20:59:20.070Z,74.80
2019-01-18T21:01:51.754Z,75.30
2019-01-18T21:04:33.240Z,75.80
2019-01-18T21:07:34.406Z,75.50
2019-01-18T21:10:23.923Z,75.60
2019-01-18T21:13:01.156Z,75.90
2019-01-18T21:15:35.436Z,76.00
2019-01-18T21:18:12.750Z,76.00
2019-01-18T21:21:00.816Z,75.70
2019-01-18T21:23:38.176Z,76.80
2019-01-18T21:26:21.541Z,75.90
2019-01-18T21:28:58.973Z,75.70
2019-01-18T21:31:30.592Z,75.90
2019-01-18T21:34:20.187Z,75.50
2019-01-18T21:37:08.345Z,75.70
2019-01-18T21:40:08.167Z,76.00
2019-01-18T21:43:08.649Z,75.80
2019-01-18T21:45:59.468Z,76.20
2019-01-18T21:48:59.375Z,76.20
2019-01-18T21:51:39.668Z,76.10
2019-01-18T21:54:28.936Z,76.40
2019-01-18T21:57:15.576Z,76.30
2019-01-18T21:59:49.618Z,76.60
2019-01-18T22:02:33.430Z,77.00
2019-01-18T22:05:20.154Z,77.10
2019-01-18T22:07:54.255Z,76.50
2019-01-18T22:10:43.924Z,76.20
2019-01-18T22:13:27.445Z,76.30
2019-01-18T22:16:01.571Z,76.40
2019-01-18T22:18:35.786Z,76.30
2019-01-18T22:21:19.422Z,76.40
2019-01-18T22:23:51.050Z,76.20
2019-01-18T22:26:39.127Z,76.90
2019-01-18T22:29:25.272Z,75.70
2019-01-18T22:32:00.247Z,76.50
2019-01-18T22:34:59.430Z,75.90
2019-01-18T22:37:56.317Z,75.80
2019-01-18T22:40:43.502Z,75.90
2019-01-18T22:43:23.773Z,74.70
2019-01-18T22:46:01.371Z,74.50
2019-01-18T22:48:35.792Z,74.60
2019-01-18T22:51:22.425Z,74.10
2019-01-18T22:54:11.247Z,74.30
2019-01-18T22:56:54.950Z,74.60
2019-01-18T22:59:44.354Z,74.80
2019-01-18T23:02:36.892Z,74.60
2019-01-18T23:05:14.078Z,75.00
2019-01-18T23:08:03.472Z,75.00
2019-01-18T23:10:43.961Z,75.10
2019-01-18T23:13:15.481Z,75.50
2019-01-18T23:16:09.417Z,75.70
2019-01-18T23:18:55.841Z,76.10
2019-01-18T23:21:33.025Z,76.40
2019-01-18T23:24:22.261Z,76.50
2019-01-18T23:26:53.856Z,76.40
2019-01-18T23:29:25.445Z,76.50
2019-01-18T23:32:20.770Z,76.30
2019-01-18T23:35:02.878Z,76.40
2019-01-18T23:37:37.888Z,76.30
2019-01-18T23:40:24.559Z,76.20
2019-01-18T23:42:59.008Z,75.90
2019-01-18T23:45:39.377Z,76.00
2019-01-18T23:48:23.002Z,75.80
2019-01-18T23:51:03.209Z,75.80
2019-01-18T23:53:44.476Z,76.10
2019-01-18T23:56:19.033Z,75.90
2019-01-18T23:58:59.087Z,75.70
